createdAt,value
2019-01-13T00:02:13.721Z,-1.24
2019-01-13T00:04:43.678Z,-1.16
2019-01-13T00:07:13.685Z,-1.17
2019-01-13T00:09:43.685Z,-1.33
2019-01-13T00:12:13.550Z,-1.50
2019-01-13T00:14:43.402Z,-1.54
2019-01-13T00:17:13.411Z,-1.72
2019-01-13T00:19:43.382Z,-1.80
2019-01-13T00:22:13.166Z,-1.33
2019-01-13T00:24:43.179Z,-1.68
2019-01-13T00:27:12.978Z,-1.68
2019-01-13T00:29:42.834Z,-1.72
2019-01-13T00:32:12.516Z,-1.77
2019-01-13T00:34:42.393Z,-1.74
2019-01-13T00:37:12.682Z,-1.74
2019-01-13T00:39:42.574Z,-1.75
2019-01-13T00:42:12.401Z,-1.82
2019-01-13T00:44:43.789Z,-1.79
2019-01-13T00:47:13.652Z,-1.76
2019-01-13T00:49:44.812Z,-1.79
2019-01-13T00:52:14.560Z,-1.86
2019-01-13T00:54:44.549Z,-1.93
2019-01-13T00:57:14.776Z,-2.15
2019-01-13T00:59:45.712Z,-1.88
2019-01-13T01:02:15.923Z,-1.95
2019-01-13T01:04:45.838Z,-1.92
2019-01-13T01:07:15.751Z,-2.00
2019-01-13T01:09:45.561Z,-2.10
2019-01-13T01:12:15.388Z,-2.08
2019-01-13T01:14:45.134Z,-2.08
2019-01-13T01:17:15.343Z,-2.24
2019-01-13T01:19:45.251Z,-2.31
2019-01-13T01:22:15.210Z,-2.37
2019-01-13T01:24:44.969Z,-2.43
2019-01-13T01:27:14.679Z,-2.56
2019-01-13T01:29:44.641Z,-2.71
2019-01-13T01:32:14.668Z,-2.83
2019-01-13T01:34:44.436Z,-2.85
2019-01-13T01:37:14.362Z,-2.91
2019-01-13T01:39:44.363Z,-2.94
2019-01-13T01:42:14.071Z,-2.93
2019-01-13T01:44:44.008Z,-3.03
2019-01-13T01:47:13.906Z,-3.08
2019-01-13T01:49:43.615Z,-3.18
2019-01-13T01:52:13.516Z,-3.07
2019-01-13T01:54:43.450Z,-3.02
2019-01-13T01:57:13.263Z,-2.98
2019-01-13T01:59:44.222Z,-3.05
2019-01-13T02:02:14.159Z,-3.11
2019-01-13T02:04:44.086Z,-3.08
2019-01-13T02:07:14.133Z,-3.04
2019-01-13T02:09:43.874Z,-3.11
2019-01-13T02:12:13.949Z,-2.98
2019-01-13T02:14:43.708Z,-2.76
2019-01-13T02:17:13.611Z,-2.81
2019-01-13T02:19:43.791Z,-2.81
2019-01-13T02:22:13.562Z,-2.79
2019-01-13T02:24:43.309Z,-2.74
2019-01-13T02:27:13.199Z,-2.65
2019-01-13T02:29:42.996Z,-2.63
2019-01-13T02:32:12.991Z,-2.55
2019-01-13T02:34:42.737Z,-2.49
2019-01-13T02:37:12.538Z,-2.50
2019-01-13T02:39:42.515Z,-2.55
2019-01-13T02:42:12.400Z,-2.60
2019-01-13T02:44:42.204Z,-2.78
2019-01-13T02:47:12.158Z,-2.89
2019-01-13T02:49:41.962Z,-2.87
2019-01-13T02:52:14.213Z,-2.93
2019-01-13T02:54:44.255Z,-2.95
2019-01-13T02:57:14.018Z,-3.00
2019-01-13T02:59:43.738Z,-3.06
2019-01-13T03:02:13.823Z,-3.16
2019-01-13T03:04:43.671Z,-3.17
2019-01-13T03:07:13.782Z,-3.22
2019-01-13T03:09:43.615Z,-3.14
2019-01-13T03:12:13.522Z,-3.04
2019-01-13T03:14:43.394Z,-2.97
2019-01-13T03:17:13.383Z,-2.95
2019-01-13T03:19:43.326Z,-2.94
2019-01-13T03:22:12.984Z,-2.94
2019-01-13T03:24:42.695Z,-2.83
2019-01-13T03:27:12.467Z,-2.81
2019-01-13T03:29:42.239Z,-2.73
2019-01-13T03:32:11.946Z,-2.75
2019-01-13T03:34:43.101Z,-2.71
2019-01-13T03:37:13.120Z,-2.64
2019-01-13T03:39:42.910Z,-2.61
2019-01-13T03:42:12.903Z,-2.63
2019-01-13T03:44:42.656Z,-2.62
2019-01-13T03:47:12.470Z,-2.59
2019-01-13T03:49:42.326Z,-2.53
2019-01-13T03:52:12.003Z,-2.47
2019-01-13T03:54:42.927Z,-2.52
2019-01-13T03:57:12.894Z,-2.49
2019-01-13T03:59:42.651Z,-2.50
2019-01-13T04:02:12.694Z,-2.49
2019-01-13T04:04:42.527Z,-2.47
2019-01-13T04:07:12.411Z,-2.40
2019-01-13T04:09:42.418Z,-2.40
2019-01-13T04:12:12.189Z,-2.33
2019-01-13T04:14:42.054Z,-2.34
2019-01-13T04:17:12.607Z,-2.33
2019-01-13T04:19:42.558Z,-2.37
2019-01-13T04:22:12.330Z,-2.46
2019-01-13T04:24:42.132Z,-2.50
2019-01-13T04:27:11.984Z,-2.55
2019-01-13T04:29:41.757Z,-2.55
2019-01-13T04:32:11.585Z,-2.49
2019-01-13T04:34:41.533Z,-2.61
2019-01-13T04:37:11.412Z,-2.59
2019-01-13T04:39:41.216Z,-2.57
2019-01-13T04:42:11.291Z,-2.54
2019-01-13T04:44:41.076Z,-2.53
2019-01-13T04:47:10.755Z,-2.55
2019-01-13T04:49:40.628Z,-2.51
2019-01-13T04:52:10.384Z,-2.59
2019-01-13T04:54:40.213Z,-2.52
2019-01-13T04:57:09.997Z,-2.45
2019-01-13T04:59:39.729Z,-2.64
2019-01-13T05:02:09.657Z,-2.54
2019-01-13T05:04:39.515Z,-2.53
2019-01-13T05:07:09.418Z,-2.63
2019-01-13T05:09:39.303Z,-2.67
2019-01-13T05:12:09.322Z,-2.70
2019-01-13T05:14:39.181Z,-2.71
2019-01-13T05:17:08.934Z,-2.77
2019-01-13T05:19:38.808Z,-2.76
2019-01-13T05:22:08.691Z,-2.72
2019-01-13T05:24:38.504Z,-2.70
2019-01-13T05:27:08.372Z,-2.73
2019-01-13T05:29:38.233Z,-2.81
2019-01-13T05:32:08.155Z,-2.88
2019-01-13T05:34:38.046Z,-2.81
2019-01-13T05:37:08.085Z,-2.78
2019-01-13T05:39:37.949Z,-2.82
2019-01-13T05:42:07.857Z,-2.73
2019-01-13T05:44:37.617Z,-2.72
2019-01-13T05:47:07.522Z,-2.66
2019-01-13T05:49:37.330Z,-2.63
2019-01-13T05:52:07.250Z,-2.60
2019-01-13T05:54:38.899Z,-2.55
2019-01-13T05:57:09.792Z,-2.55
2019-01-13T05:59:39.694Z,-2.56
2019-01-13T06:02:09.809Z,-2.60
2019-01-13T06:04:44.104Z,-2.41
2019-01-13T06:07:13.939Z,-2.37
2019-01-13T06:09:43.756Z,-2.23
2019-01-13T06:12:29.731Z,-2.23
2019-01-13T06:14:59.693Z,-2.20
2019-01-13T06:17:29.628Z,-2.21
2019-01-13T06:19:59.630Z,-2.15
2019-01-13T06:22:30.662Z,-2.12
2019-01-13T06:25:00.466Z,-2.01
2019-01-13T06:27:30.216Z,-1.98
2019-01-13T06:30:00.224Z,-1.91
2019-01-13T06:32:30.312Z,-1.79
2019-01-13T06:35:00.200Z,-1.66
2019-01-13T06:37:30.141Z,-1.58
2019-01-13T06:40:00.067Z,-1.52
2019-01-13T06:42:30.058Z,-1.89
2019-01-13T06:44:59.894Z,-2.23
2019-01-13T06:47:29.699Z,-2.37
2019-01-13T06:50:00.718Z,-2.46
2019-01-13T06:52:30.591Z,-2.52
2019-01-13T06:55:00.481Z,-2.58
2019-01-13T06:57:30.254Z,-2.53
2019-01-13T07:00:01.163Z,-2.49
2019-01-13T07:02:31.066Z,-2.51
2019-01-13T07:05:00.868Z,-2.60
2019-01-13T07:07:30.734Z,-2.14
2019-01-13T07:10:00.395Z,-2.00
2019-01-13T07:12:30.308Z,-1.94
2019-01-13T07:15:00.271Z,-1.72
2019-01-13T07:17:30.043Z,-1.64
2019-01-13T07:20:00.028Z,-1.69
2019-01-13T07:22:29.827Z,-1.79
2019-01-13T07:24:59.589Z,-1.85
2019-01-13T07:27:29.394Z,-1.71
2019-01-13T07:29:59.132Z,-1.74
2019-01-13T07:32:28.917Z,-1.93
2019-01-13T07:34:58.773Z,-2.10
2019-01-13T07:37:29.768Z,-2.03
2019-01-13T07:39:59.698Z,-2.31
2019-01-13T07:42:29.603Z,-2.27
2019-01-13T07:44:59.464Z,-2.36
2019-01-13T07:47:29.282Z,-2.13
2019-01-13T07:49:59.054Z,-1.87
2019-01-13T07:52:29.430Z,-1.67
2019-01-13T07:54:59.340Z,-1.43
2019-01-13T07:57:29.145Z,-1.27
2019-01-13T08:00:02.422Z,-1.15
2019-01-13T08:02:32.423Z,-1.16
2019-01-13T08:05:02.252Z,-0.95
2019-01-13T08:07:31.966Z,-0.68
2019-01-13T08:10:01.840Z,-0.48
2019-01-13T08:12:32.002Z,-0.15
2019-01-13T08:15:01.690Z,-0.17
2019-01-13T08:17:31.577Z,-0.11
2019-01-13T08:20:01.332Z,-0.10
2019-01-13T08:22:31.147Z,-0.09
2019-01-13T08:25:01.041Z,-0.04
2019-01-13T08:27:30.873Z,-0.33
2019-01-13T08:30:01.104Z,-0.20
2019-01-13T08:32:30.967Z,-0.22
2019-01-13T08:35:00.625Z,-0.07
2019-01-13T08:37:30.323Z,-0.06
2019-01-13T08:40:01.399Z,0.15
2019-01-13T08:42:32.448Z,0.18
2019-01-13T08:45:02.334Z,0.11
2019-01-13T08:47:32.213Z,0.09
2019-01-13T08:50:02.391Z,0.23
2019-01-13T08:52:32.189Z,0.41
2019-01-13T08:55:03.352Z,0.55
2019-01-13T08:57:33.268Z,0.78
2019-01-13T09:00:03.075Z,1.01
2019-01-13T09:02:33.262Z,1.11
2019-01-13T09:05:03.440Z,1.20
2019-01-13T09:07:33.649Z,1.34
2019-01-13T09:10:03.522Z,1.42
2019-01-13T09:12:33.310Z,1.55
2019-01-13T09:15:03.030Z,1.59
2019-01-13T09:17:32.755Z,1.66
2019-01-13T09:20:02.858Z,1.44
2019-01-13T09:22:32.726Z,1.71
2019-01-13T09:25:02.539Z,1.93
2019-01-13T09:27:32.614Z,1.98
2019-01-13T09:30:02.548Z,2.02
2019-01-13T09:32:39.240Z,2.16
2019-01-13T09:35:04.246Z,2.23
2019-01-13T09:37:35.301Z,2.31
2019-01-13T09:40:06.040Z,2.23
2019-01-13T09:42:35.947Z,2.34
2019-01-13T09:45:07.514Z,2.47
2019-01-13T09:47:37.421Z,2.54
2019-01-13T09:50:09.604Z,2.59
2019-01-13T09:52:39.615Z,2.73
2019-01-13T09:55:11.261Z,2.39
2019-01-13T09:57:41.141Z,2.51
2019-01-13T10:00:15.800Z,2.55
2019-01-13T10:02:46.861Z,2.67
2019-01-13T10:05:16.764Z,2.75
2019-01-13T10:07:46.558Z,2.73
2019-01-13T10:10:16.650Z,2.84
2019-01-13T10:12:46.511Z,2.92
2019-01-13T10:15:18.358Z,2.89
2019-01-13T10:17:48.348Z,2.69
2019-01-13T10:20:18.096Z,2.62
2019-01-13T10:22:48.013Z,2.68
2019-01-13T10:25:18.212Z,2.62
2019-01-13T10:27:47.965Z,2.78
2019-01-13T10:30:20.075Z,2.97
2019-01-13T10:32:54.726Z,2.31
2019-01-13T10:35:22.123Z,2.35
2019-01-13T10:37:52.041Z,2.75
2019-01-13T10:40:24.847Z,2.73
2019-01-13T10:42:54.808Z,2.60
2019-01-13T10:45:24.875Z,2.86
2019-01-13T10:47:55.201Z,3.06
2019-01-13T10:50:27.318Z,3.24
2019-01-13T10:52:59.007Z,3.23
2019-01-13T10:55:29.196Z,2.99
2019-01-13T10:57:58.853Z,2.79
2019-01-13T11:00:30.560Z,2.84
2019-01-13T11:03:02.507Z,2.83
2019-01-13T11:05:32.275Z,2.88
2019-01-13T11:08:11.474Z,2.98
2019-01-13T11:10:36.796Z,2.93
2019-01-13T11:13:06.632Z,2.93
2019-01-13T11:15:36.482Z,3.26
2019-01-13T11:18:07.078Z,3.54
2019-01-13T11:20:40.270Z,3.36
2019-01-13T11:23:10.379Z,3.22
2019-01-13T11:25:40.342Z,3.59
2019-01-13T11:28:11.300Z,3.84
2019-01-13T11:30:40.954Z,3.64
2019-01-13T11:33:10.989Z,3.67
2019-01-13T11:35:41.930Z,3.92
2019-01-13T11:38:12.026Z,4.01
2019-01-13T11:40:42.071Z,4.20
2019-01-13T11:43:13.350Z,4.39
2019-01-13T11:45:43.240Z,4.33
2019-01-13T11:48:13.034Z,4.29
2019-01-13T11:50:42.887Z,4.11
2019-01-13T11:53:12.685Z,3.93
2019-01-13T11:55:42.699Z,4.02
2019-01-13T11:58:15.734Z,4.10
2019-01-13T12:00:46.680Z,4.19
2019-01-13T12:03:17.273Z,4.12
2019-01-13T12:05:47.286Z,4.24
2019-01-13T12:08:17.121Z,4.29
2019-01-13T12:10:46.868Z,4.21
2019-01-13T12:13:16.716Z,3.96
2019-01-13T12:15:46.641Z,3.88
2019-01-13T12:18:16.528Z,3.73
2019-01-13T12:20:46.672Z,3.69
2019-01-13T12:23:17.811Z,3.89
2019-01-13T12:25:52.582Z,4.06
2019-01-13T12:28:20.094Z,4.19
2019-01-13T12:30:51.172Z,4.00
2019-01-13T12:33:24.577Z,4.31
2019-01-13T12:35:52.447Z,4.25
2019-01-13T12:38:22.387Z,4.23
2019-01-13T12:40:52.557Z,4.25
2019-01-13T12:43:22.456Z,4.28
2019-01-13T12:45:52.344Z,4.08
2019-01-13T12:48:22.512Z,4.22
2019-01-13T12:50:52.334Z,4.19
2019-01-13T12:53:22.323Z,4.18
2019-01-13T12:55:52.154Z,4.30
2019-01-13T12:58:21.899Z,4.29
2019-01-13T13:00:51.906Z,4.25
2019-01-13T13:03:21.680Z,4.27
2019-01-13T13:05:51.905Z,4.33
2019-01-13T13:08:21.643Z,4.24
2019-01-13T13:10:54.507Z,4.32
2019-01-13T13:13:24.442Z,4.21
2019-01-13T13:15:54.276Z,4.19
2019-01-13T13:18:24.245Z,4.17
2019-01-13T13:20:54.098Z,4.19
2019-01-13T13:23:23.914Z,4.15
2019-01-13T13:25:53.673Z,4.11
2019-01-13T13:28:24.101Z,4.06
2019-01-13T13:30:53.894Z,4.01
2019-01-13T13:33:23.571Z,4.08
2019-01-13T13:35:53.289Z,4.09
2019-01-13T13:38:24.364Z,4.03
2019-01-13T13:40:54.235Z,3.96
2019-01-13T13:43:32.203Z,3.85
2019-01-13T13:46:03.077Z,3.99
2019-01-13T13:48:33.081Z,3.97
2019-01-13T13:51:04.152Z,3.88
2019-01-13T13:53:33.878Z,3.92
2019-01-13T13:56:03.752Z,3.77
2019-01-13T13:58:34.077Z,3.78
2019-01-13T14:01:04.215Z,3.78
2019-01-13T14:03:34.144Z,3.76
2019-01-13T14:06:04.056Z,3.84
2019-01-13T14:08:34.084Z,3.82
2019-01-13T14:11:05.005Z,3.76
2019-01-13T14:13:34.910Z,3.74
2019-01-13T14:16:04.748Z,3.67
2019-01-13T14:18:34.665Z,3.66
2019-01-13T14:21:04.756Z,3.63
2019-01-13T14:23:34.593Z,3.61
2019-01-13T14:26:04.448Z,3.61
2019-01-13T14:28:34.430Z,3.68
2019-01-13T14:31:04.574Z,3.76
2019-01-13T14:33:34.611Z,3.82
2019-01-13T14:36:04.568Z,3.91
2019-01-13T14:38:34.374Z,3.89
2019-01-13T14:41:04.455Z,3.83
2019-01-13T14:43:34.434Z,3.67
2019-01-13T14:46:04.456Z,3.59
2019-01-13T14:48:34.431Z,3.36
2019-01-13T14:51:04.179Z,3.25
2019-01-13T14:53:34.068Z,3.20
2019-01-13T14:56:03.927Z,3.24
2019-01-13T14:58:33.645Z,3.11
2019-01-13T15:01:04.519Z,3.07
2019-01-13T15:03:34.376Z,3.03
2019-01-13T15:06:05.762Z,2.99
2019-01-13T15:08:35.441Z,3.00
2019-01-13T15:11:05.368Z,2.94
2019-01-13T15:13:36.412Z,2.88
2019-01-13T15:16:06.209Z,2.69
2019-01-13T15:18:36.082Z,2.36
2019-01-13T15:21:05.874Z,2.40
2019-01-13T15:23:35.686Z,2.35
2019-01-13T15:26:05.564Z,2.32
2019-01-13T15:28:35.383Z,2.33
2019-01-13T15:31:05.218Z,2.32
2019-01-13T15:33:35.019Z,2.19
2019-01-13T15:36:07.253Z,2.17
2019-01-13T15:38:37.011Z,2.17
2019-01-13T15:41:08.078Z,2.09
2019-01-13T15:43:38.071Z,2.14
2019-01-13T15:46:08.095Z,2.13
2019-01-13T15:48:38.137Z,2.14
2019-01-13T15:51:07.903Z,2.01
2019-01-13T15:53:38.858Z,1.92
2019-01-13T15:56:08.774Z,1.96
2019-01-13T15:58:38.623Z,1.99
2019-01-13T16:01:08.404Z,2.00
2019-01-13T16:03:38.331Z,2.03
2019-01-13T16:06:08.294Z,2.04
2019-01-13T16:08:39.355Z,2.07
2019-01-13T16:11:09.019Z,2.06
2019-01-13T16:13:38.872Z,2.04
2019-01-13T16:16:08.816Z,1.99
2019-01-13T16:18:38.565Z,1.98
2019-01-13T16:21:08.772Z,1.91
2019-01-13T16:23:39.770Z,1.84
2019-01-13T16:26:10.045Z,1.86
2019-01-13T16:28:40.011Z,1.86
2019-01-13T16:31:51.436Z,1.82
2019-01-13T16:34:47.887Z,1.81
2019-01-13T16:37:43.427Z,1.75
2019-01-13T16:41:02.673Z,1.65
2019-01-13T16:43:46.313Z,1.56
2019-01-13T16:46:16.110Z,1.53
2019-01-13T16:48:45.916Z,1.53
2019-01-13T16:51:15.996Z,1.47
2019-01-13T16:53:46.536Z,1.40
2019-01-13T16:56:16.386Z,1.40
2019-01-13T16:58:46.062Z,1.44
2019-01-13T17:01:15.776Z,1.43
2019-01-13T17:03:45.582Z,1.45
2019-01-13T17:06:15.541Z,1.47
2019-01-13T17:08:45.321Z,1.45
2019-01-13T17:11:15.345Z,1.45
2019-01-13T17:13:45.619Z,1.36
2019-01-13T17:16:15.282Z,1.30
2019-01-13T17:18:45.333Z,1.32
2019-01-13T17:21:15.411Z,1.28
2019-01-13T17:23:45.181Z,1.23
2019-01-13T17:26:14.837Z,1.13
2019-01-13T17:28:44.916Z,1.09
2019-01-13T17:31:14.682Z,0.96
2019-01-13T17:33:45.645Z,0.90
2019-01-13T17:36:15.376Z,0.90
2019-01-13T17:38:45.039Z,0.71
2019-01-13T17:41:14.825Z,0.89
2019-01-13T17:43:44.865Z,0.87
2019-01-13T17:46:14.594Z,0.87
2019-01-13T17:48:44.467Z,0.88
2019-01-13T17:51:14.316Z,0.89
2019-01-13T17:53:44.229Z,0.89
2019-01-13T17:56:14.885Z,0.85
2019-01-13T17:58:44.896Z,0.76
2019-01-13T18:01:23.787Z,0.75
2019-01-13T18:03:53.721Z,0.69
2019-01-13T18:06:23.410Z,0.71
2019-01-13T18:08:53.017Z,0.84
2019-01-13T18:11:23.001Z,0.91
2019-01-13T18:13:52.858Z,1.01
2019-01-13T18:16:22.801Z,1.07
2019-01-13T18:18:52.785Z,1.09
2019-01-13T18:21:22.836Z,1.16
2019-01-13T18:23:52.594Z,1.17
2019-01-13T18:26:22.716Z,1.11
2019-01-13T18:28:52.798Z,1.05
2019-01-13T18:31:22.996Z,1.14
2019-01-13T18:33:53.267Z,1.18
2019-01-13T18:36:23.324Z,1.14
2019-01-13T18:38:53.208Z,1.20
2019-01-13T18:41:23.108Z,1.23
2019-01-13T18:43:53.191Z,1.24
2019-01-13T18:46:23.489Z,1.17
2019-01-13T18:48:53.744Z,1.16
2019-01-13T18:51:23.520Z,1.20
2019-01-13T18:53:53.339Z,1.23
2019-01-13T18:56:23.166Z,1.19
2019-01-13T18:58:52.854Z,1.17
2019-01-13T19:01:22.798Z,1.22
2019-01-13T19:03:52.770Z,1.15
2019-01-13T19:06:22.825Z,1.08
2019-01-13T19:08:52.806Z,0.98
2019-01-13T19:11:45.973Z,0.94
2019-01-13T19:14:40.322Z,0.91
2019-01-13T19:17:13.232Z,0.73
2019-01-13T19:20:05.250Z,0.73
2019-01-13T19:22:36.400Z,0.75
2019-01-13T19:25:19.065Z,0.75
2019-01-13T19:29:00.818Z,0.64
2019-01-13T19:32:46.964Z,0.64
2019-01-13T19:35:43.253Z,0.66
2019-01-13T19:41:54.183Z,0.58
2019-01-13T19:52:05.178Z,0.62
2019-01-13T19:55:12.154Z,0.58
2019-01-13T19:58:23.171Z,0.54
2019-01-13T20:05:00.370Z,0.39
2019-01-13T20:08:35.410Z,0.55
2019-01-13T20:11:57.711Z,-0.24
2019-01-13T20:18:31.663Z,0.57
2019-01-13T20:21:35.775Z,0.55
2019-01-13T20:35:49.034Z,0.29
2019-01-13T20:38:28.712Z,0.14
2019-01-13T20:41:21.920Z,0.02
2019-01-13T20:44:18.128Z,0.13
2019-01-13T20:47:25.871Z,0.26
2019-01-13T20:50:22.885Z,0.11
2019-01-13T20:53:17.460Z,0.08
2019-01-13T20:56:14.437Z,0.04
2019-01-13T20:59:27.383Z,0.21
2019-01-13T21:02:15.483Z,0.33
2019-01-13T21:05:13.099Z,0.25
2019-01-13T21:08:05.368Z,0.11
2019-01-13T21:11:14.700Z,0.07
2019-01-13T21:14:18.857Z,0.05
2019-01-13T21:17:23.292Z,-0.14
2019-01-13T21:20:03.838Z,-0.12
2019-01-13T21:22:59.344Z,-0.03
2019-01-13T21:26:03.289Z,-0.07
2019-01-13T21:32:26.772Z,-0.01
2019-01-13T21:35:14.876Z,0.08
2019-01-13T21:38:27.295Z,0.08
2019-01-13T21:41:23.086Z,0.12
2019-01-13T21:44:20.852Z,0.16
2019-01-13T21:47:30.252Z,0.20
2019-01-13T21:50:33.595Z,0.25
2019-01-13T21:53:22.594Z,0.17
2019-01-13T21:56:37.349Z,0.20
2019-01-13T21:59:44.776Z,0.14
2019-01-13T22:03:29.512Z,0.07
2019-01-13T22:05:23.703Z,0.10
2019-01-13T22:08:05.070Z,0.02
2019-01-13T22:10:50.470Z,-0.01
2019-01-13T22:17:04.174Z,-0.08
2019-01-13T22:20:35.420Z,-0.10
2019-01-13T22:23:36.650Z,-0.09
2019-01-13T22:26:31.491Z,-0.18
2019-01-13T22:29:24.298Z,-0.26
2019-01-13T22:32:46.950Z,-0.20
2019-01-13T22:35:16.978Z,-0.30
2019-01-13T22:37:47.060Z,-0.37
2019-01-13T22:40:18.086Z,-0.18
2019-01-13T22:42:48.143Z,-0.18
2019-01-13T22:45:19.900Z,-0.17
2019-01-13T22:47:49.829Z,-0.13
2019-01-13T22:50:19.718Z,-0.10
2019-01-13T22:52:49.641Z,-0.18
2019-01-13T22:55:19.387Z,-0.08
2019-01-13T22:57:49.279Z,-0.05
2019-01-13T23:01:09.178Z,-0.01
2019-01-13T23:03:39.437Z,0.04
2019-01-13T23:06:10.084Z,0.20
2019-01-13T23:08:39.969Z,0.23
2019-01-13T23:11:09.716Z,0.14
2019-01-13T23:13:39.499Z,0.19
2019-01-13T23:16:09.276Z,0.21
2019-01-13T23:18:39.078Z,0.09
2019-01-13T23:21:09.044Z,0.09
2019-01-13T23:23:38.877Z,0.15
2019-01-13T23:26:08.628Z,0.27
2019-01-13T23:28:38.748Z,0.18
2019-01-13T23:31:08.903Z,0.16
2019-01-13T23:33:38.778Z,-0.09
2019-01-13T23:36:08.601Z,-0.17
2019-01-13T23:38:38.472Z,-0.12
2019-01-13T23:41:08.219Z,0.02
2019-01-13T23:43:38.043Z,0.02
2019-01-13T23:46:07.900Z,0.03
2019-01-13T23:48:37.695Z,0.02
2019-01-13T23:51:07.477Z,0.05
2019-01-13T23:53:37.179Z,-0.01
2019-01-13T23:56:06.952Z,-0.07
2019-01-13T23:58:36.705Z,-0.14
